createdAt,value
2019-02-17T00:02:25.399Z,11.10
2019-02-17T00:05:44.159Z,11.10
2019-02-17T00:08:52.681Z,11.10
2019-02-17T00:12:01.406Z,11.20
2019-02-17T00:15:10.315Z,11.20
2019-02-17T00:18:18.937Z,11.20
2019-02-17T00:21:27.835Z,11.20
2019-02-17T00:24:36.515Z,11.20
2019-02-17T00:27:45.782Z,11.20
2019-02-17T00:30:54.516Z,11.30
2019-02-17T00:34:03.139Z,11.30
2019-02-17T00:37:11.207Z,11.30
2019-02-17T00:40:19.908Z,11.30
2019-02-17T00:43:38.774Z,11.30
2019-02-17T00:46:47.396Z,11.30
2019-02-17T00:49:56.100Z,11.30
2019-02-17T00:53:04.754Z,11.30
2019-02-17T00:56:13.363Z,11.40
2019-02-17T00:59:22.073Z,11.40
2019-02-17T01:02:30.674Z,11.40
2019-02-17T01:05:39.181Z,11.50
2019-02-17T01:08:58.134Z,11.50
2019-02-17T01:12:06.743Z,11.50
2019-02-17T01:15:15.560Z,11.60
2019-02-17T01:18:24.363Z,11.60
2019-02-17T01:21:33.131Z,11.60
2019-02-17T01:24:41.741Z,11.60
2019-02-17T01:27:50.341Z,11.60
2019-02-17T01:30:59.045Z,11.60
2019-02-17T01:34:11.697Z,11.60
2019-02-17T01:37:20.303Z,11.60
2019-02-17T01:40:29.019Z,11.60
2019-02-17T01:43:37.632Z,11.60
2019-02-17T01:46:46.253Z,11.60
2019-02-17T01:49:54.997Z,11.60
2019-02-17T01:53:03.588Z,11.60
2019-02-17T01:56:22.369Z,11.60
2019-02-17T01:59:31.114Z,11.50
2019-02-17T02:02:39.779Z,11.50
2019-02-17T02:05:48.403Z,11.40
2019-02-17T02:08:56.994Z,11.20
2019-02-17T02:12:05.981Z,11.20
2019-02-17T02:15:14.787Z,11.10
2019-02-17T02:18:23.340Z,11.00
2019-02-17T02:21:31.953Z,11.00
2019-02-17T02:24:40.444Z,10.90
2019-02-17T02:27:59.252Z,10.80
2019-02-17T02:31:07.998Z,10.80
2019-02-17T02:34:16.560Z,10.70
2019-02-17T02:37:25.173Z,10.60
2019-02-17T02:40:33.862Z,10.60
2019-02-17T02:43:42.458Z,10.60
2019-02-17T02:46:50.966Z,10.60
2019-02-17T02:50:12.351Z,10.50
2019-02-17T02:53:20.877Z,10.50
2019-02-17T02:56:29.493Z,10.50
2019-02-17T02:59:52.450Z,10.50
2019-02-17T03:02:58.753Z,10.50
2019-02-17T03:06:24.891Z,10.50
2019-02-17T03:09:33.595Z,10.50
2019-02-17T03:12:42.213Z,10.60
2019-02-17T03:15:50.799Z,10.50
2019-02-17T03:18:59.949Z,10.60
2019-02-17T03:22:08.584Z,10.60
2019-02-17T03:25:17.185Z,10.70
2019-02-17T03:28:24.204Z,10.70
2019-02-17T03:31:32.881Z,10.70
2019-02-17T03:34:41.755Z,10.70
2019-02-17T03:38:00.572Z,10.80
2019-02-17T03:41:09.283Z,10.70
2019-02-17T03:44:19.215Z,10.70
2019-02-17T03:47:27.836Z,10.70
2019-02-17T03:50:36.478Z,10.80
2019-02-17T03:53:45.001Z,10.70
2019-02-17T03:57:03.913Z,10.70
2019-02-17T04:00:16.984Z,10.70
2019-02-17T04:03:23.032Z,10.70
2019-02-17T04:06:31.637Z,10.70
2019-02-17T04:09:40.319Z,10.70
2019-02-17T04:12:48.925Z,10.70
2019-02-17T04:15:57.428Z,10.70
2019-02-17T04:19:06.041Z,10.70
2019-02-17T04:22:24.849Z,10.80
2019-02-17T04:25:33.476Z,10.80
2019-02-17T04:28:42.001Z,10.80
2019-02-17T04:31:50.716Z,10.70
2019-02-17T04:34:59.348Z,10.70
2019-02-17T04:38:07.983Z,10.70
2019-02-17T04:41:18.194Z,10.80
2019-02-17T04:44:37.012Z,10.80
2019-02-17T04:47:45.645Z,10.80
2019-02-17T04:50:54.309Z,10.80
2019-02-17T04:54:02.924Z,10.80
2019-02-17T04:57:11.498Z,10.80
2019-02-17T05:00:20.213Z,10.80
2019-02-17T05:03:28.827Z,10.70
2019-02-17T05:06:47.550Z,10.70
2019-02-17T05:09:56.203Z,10.70
2019-02-17T05:13:04.735Z,10.70
2019-02-17T05:16:13.240Z,10.70
2019-02-17T05:19:21.865Z,10.60
2019-02-17T05:22:40.647Z,10.50
2019-02-17T05:25:49.234Z,10.40
2019-02-17T05:28:57.857Z,10.30
2019-02-17T05:32:06.466Z,10.20
2019-02-17T05:35:15.071Z,10.20
2019-02-17T05:38:24.788Z,10.20
2019-02-17T05:41:33.482Z,10.10
2019-02-17T05:44:41.993Z,10.00
2019-02-17T05:47:50.596Z,9.80
2019-02-17T05:50:59.465Z,9.80
2019-02-17T05:54:07.956Z,9.60
2019-02-17T05:57:16.547Z,9.50
2019-02-17T06:00:28.954Z,9.40
2019-02-17T06:03:37.548Z,9.40
2019-02-17T06:06:46.020Z,9.30
2019-02-17T06:10:06.211Z,9.20
2019-02-17T06:13:14.848Z,9.00
2019-02-17T06:16:23.487Z,8.90
2019-02-17T06:19:30.711Z,8.80
2019-02-17T06:22:39.180Z,8.70
2019-02-17T06:25:47.770Z,8.40
2019-02-17T06:29:06.533Z,8.50
2019-02-17T06:32:15.113Z,8.40
2019-02-17T06:35:23.626Z,8.40
2019-02-17T06:38:32.212Z,8.30
2019-02-17T06:41:40.878Z,8.20
2019-02-17T06:44:49.388Z,8.00
2019-02-17T06:48:08.595Z,8.00
2019-02-17T06:51:17.292Z,7.80
2019-02-17T06:54:25.811Z,7.90
2019-02-17T06:57:38.443Z,7.70
2019-02-17T07:00:49.523Z,7.70
2019-02-17T07:03:58.116Z,7.70
2019-02-17T07:07:07.214Z,7.80
2019-02-17T07:10:15.851Z,7.70
2019-02-17T07:13:24.465Z,7.60
2019-02-17T07:16:33.051Z,7.60
2019-02-17T07:19:52.011Z,7.70
2019-02-17T07:23:00.479Z,7.70
2019-02-17T07:26:09.091Z,7.50
2019-02-17T07:29:17.738Z,7.60
2019-02-17T07:32:26.234Z,7.70
2019-02-17T07:35:34.856Z,7.50
2019-02-17T07:38:53.722Z,7.50
2019-02-17T07:42:02.399Z,7.40
2019-02-17T07:45:10.980Z,7.40
2019-02-17T07:48:19.572Z,7.40
2019-02-17T07:51:32.994Z,7.40
2019-02-17T07:54:41.542Z,7.50
2019-02-17T07:58:00.332Z,7.50
2019-02-17T08:01:08.999Z,7.70
2019-02-17T08:04:17.485Z,7.50
2019-02-17T08:07:26.080Z,7.70
2019-02-17T08:10:34.742Z,7.80
2019-02-17T08:13:43.337Z,7.90
2019-02-17T08:16:51.923Z,7.80
2019-02-17T08:20:12.783Z,7.70
2019-02-17T08:23:21.254Z,7.90
2019-02-17T08:26:29.891Z,7.80
2019-02-17T08:29:38.563Z,8.00
2019-02-17T08:32:47.181Z,8.00
2019-02-17T08:35:55.804Z,8.20
2019-02-17T08:39:05.582Z,8.30
2019-02-17T08:42:14.224Z,8.50
2019-02-17T08:45:22.812Z,8.80
2019-02-17T08:48:31.417Z,9.00
2019-02-17T08:51:40.042Z,9.50
2019-02-17T08:54:48.617Z,9.70
2019-02-17T08:57:57.373Z,10.00
2019-02-17T09:01:06.013Z,10.20
2019-02-17T09:04:24.819Z,10.10
2019-02-17T09:07:33.321Z,10.10
2019-02-17T09:10:41.926Z,10.20
2019-02-17T09:13:50.552Z,10.50
2019-02-17T09:16:59.042Z,10.80
2019-02-17T09:20:17.921Z,11.10
2019-02-17T09:23:26.458Z,11.40
2019-02-17T09:26:34.984Z,11.60
2019-02-17T09:29:43.608Z,11.90
2019-02-17T09:32:52.110Z,12.20
2019-02-17T09:36:10.740Z,12.80
2019-02-17T09:39:19.391Z,13.10
2019-02-17T09:42:27.952Z,13.50
2019-02-17T09:45:36.513Z,13.70
2019-02-17T09:48:45.121Z,14.10
2019-02-17T09:51:53.717Z,14.60
2019-02-17T09:55:12.491Z,14.90
2019-02-17T09:58:21.955Z,14.70
2019-02-17T10:01:42.665Z,14.90
2019-02-17T10:04:50.971Z,14.90
2019-02-17T10:07:59.882Z,15.00
2019-02-17T10:11:08.971Z,15.10
2019-02-17T10:14:17.893Z,15.00
2019-02-17T10:17:28.204Z,14.90
2019-02-17T10:20:36.811Z,14.60
2019-02-17T10:23:45.420Z,14.50
2019-02-17T10:26:54.331Z,14.40
2019-02-17T10:30:03.590Z,14.30
2019-02-17T10:33:12.973Z,14.30
2019-02-17T10:36:21.494Z,14.50
2019-02-17T10:39:31.650Z,14.20
2019-02-17T10:42:50.466Z,14.00
2019-02-17T10:45:59.042Z,14.10
2019-02-17T10:49:07.768Z,14.20
2019-02-17T10:52:16.393Z,14.60
2019-02-17T10:55:24.873Z,14.60
2019-02-17T10:58:33.399Z,14.70
2019-02-17T11:01:52.287Z,14.90
2019-02-17T11:05:00.840Z,14.80
2019-02-17T11:08:09.463Z,15.00
2019-02-17T11:11:18.027Z,15.20
2019-02-17T11:14:26.535Z,14.90
2019-02-17T11:17:45.148Z,14.80
2019-02-17T11:20:53.696Z,14.80
2019-02-17T11:24:02.225Z,15.10
2019-02-17T11:27:10.849Z,15.60
2019-02-17T11:30:19.612Z,16.60
2019-02-17T11:33:28.249Z,17.20
2019-02-17T11:36:36.860Z,17.80
2019-02-17T11:39:55.813Z,18.20
2019-02-17T11:43:04.447Z,18.40
2019-02-17T11:46:13.187Z,18.10
2019-02-17T11:49:21.909Z,18.50
2019-02-17T11:52:32.339Z,19.00
2019-02-17T11:55:40.482Z,18.80
2019-02-17T11:58:49.082Z,18.80
2019-02-17T12:02:27.090Z,19.50
2019-02-17T12:05:35.704Z,20.40
2019-02-17T12:08:48.883Z,20.40
2019-02-17T12:11:57.475Z,20.10
2019-02-17T12:15:06.790Z,20.60
2019-02-17T12:18:15.666Z,20.20
2019-02-17T12:21:52.031Z,21.00
2019-02-17T12:25:07.271Z,20.90
2019-02-17T12:28:23.819Z,21.30
2019-02-17T12:31:36.487Z,21.10
2019-02-17T12:34:55.285Z,21.40
2019-02-17T12:38:03.780Z,22.10
2019-02-17T12:41:12.443Z,22.40
2019-02-17T12:44:21.097Z,22.30
2019-02-17T12:47:29.713Z,22.20
2019-02-17T12:50:38.369Z,22.00
2019-02-17T12:53:47.883Z,22.30
2019-02-17T12:56:56.932Z,22.70
2019-02-17T13:00:07.014Z,22.30
2019-02-17T13:03:16.073Z,22.10
2019-02-17T13:06:26.562Z,22.30
2019-02-17T13:09:34.965Z,22.30
2019-02-17T13:12:43.590Z,23.00
2019-02-17T13:15:52.101Z,22.90
2019-02-17T13:19:00.685Z,23.60
2019-02-17T13:22:19.828Z,24.40
2019-02-17T13:25:38.797Z,24.40
2019-02-17T13:28:47.426Z,24.50
2019-02-17T13:31:56.084Z,24.20
2019-02-17T13:35:05.194Z,25.00
2019-02-17T13:38:13.751Z,24.90
2019-02-17T13:41:22.412Z,24.40
2019-02-17T13:44:30.985Z,24.40
2019-02-17T13:47:39.508Z,24.60
2019-02-17T13:50:58.222Z,24.50
2019-02-17T13:54:06.898Z,24.50
2019-02-17T13:57:15.453Z,25.10
2019-02-17T14:00:24.149Z,25.20
2019-02-17T14:03:32.655Z,25.30
2019-02-17T14:06:41.762Z,24.80
2019-02-17T14:09:50.355Z,23.70
2019-02-17T14:12:58.891Z,23.60
2019-02-17T14:16:07.534Z,23.10
2019-02-17T14:19:26.308Z,22.40
2019-02-17T14:22:34.930Z,21.80
2019-02-17T14:25:43.649Z,21.70
2019-02-17T14:28:52.311Z,20.70
2019-02-17T14:32:00.846Z,20.20
2019-02-17T14:35:09.696Z,19.80
2019-02-17T14:38:18.378Z,19.70
2019-02-17T14:41:27.132Z,19.50
2019-02-17T14:44:35.790Z,18.90
2019-02-17T14:47:45.636Z,18.60
2019-02-17T14:50:54.524Z,18.30
2019-02-17T14:54:03.348Z,18.30
2019-02-17T14:57:13.168Z,18.20
2019-02-17T15:00:21.721Z,18.10
2019-02-17T15:03:30.332Z,18.00
2019-02-17T15:06:44.129Z,17.90
2019-02-17T15:09:54.193Z,17.80
2019-02-17T15:13:02.832Z,17.50
2019-02-17T15:16:21.748Z,17.40
2019-02-17T15:19:30.491Z,17.40
2019-02-17T15:22:39.012Z,17.40
2019-02-17T15:25:47.611Z,17.30
2019-02-17T15:28:56.208Z,17.20
2019-02-17T15:32:04.775Z,16.80
2019-02-17T15:35:27.714Z,16.60
2019-02-17T15:38:43.451Z,16.40
2019-02-17T15:41:52.569Z,16.40
2019-02-17T15:45:01.188Z,16.40
2019-02-17T15:48:09.982Z,16.30
2019-02-17T15:51:18.672Z,16.00
2019-02-17T15:54:29.829Z,16.00
2019-02-17T15:57:38.862Z,15.90
2019-02-17T16:00:47.505Z,15.80
2019-02-17T16:03:56.108Z,15.60
2019-02-17T16:07:04.736Z,15.50
2019-02-17T16:10:13.466Z,15.50
2019-02-17T16:13:23.192Z,15.40
2019-02-17T16:16:42.228Z,15.40
2019-02-17T16:19:50.938Z,15.40
2019-02-17T16:22:59.456Z,15.40
2019-02-17T16:26:07.950Z,15.20
2019-02-17T16:29:15.056Z,15.20
2019-02-17T16:32:23.594Z,15.00
2019-02-17T16:35:42.305Z,14.90
2019-02-17T16:38:50.916Z,14.90
2019-02-17T16:41:59.570Z,14.90
2019-02-17T16:45:11.145Z,14.70
2019-02-17T16:48:19.768Z,14.70
2019-02-17T16:51:28.439Z,14.60
2019-02-17T16:54:54.811Z,14.50
2019-02-17T16:58:03.518Z,14.40
2019-02-17T17:01:12.202Z,14.40
2019-02-17T17:04:21.490Z,14.30
2019-02-17T17:07:28.552Z,14.20
2019-02-17T17:10:37.204Z,14.10
2019-02-17T17:13:45.854Z,14.10
2019-02-17T17:16:54.518Z,14.00
2019-02-17T17:20:03.149Z,13.70
2019-02-17T17:23:11.674Z,13.70
2019-02-17T17:26:20.185Z,13.70
2019-02-17T17:29:46.528Z,13.60
2019-02-17T17:32:56.664Z,13.50
2019-02-17T17:36:05.473Z,13.50
2019-02-17T17:39:14.055Z,13.50
2019-02-17T17:42:22.606Z,13.50
2019-02-17T17:45:31.276Z,13.40
2019-02-17T17:48:39.751Z,13.30
2019-02-17T17:52:01.389Z,13.10
2019-02-17T17:55:10.376Z,13.10
2019-02-17T17:58:18.890Z,13.10
2019-02-17T18:01:27.573Z,12.90
2019-02-17T18:04:36.159Z,12.90
2019-02-17T18:07:44.697Z,12.90
2019-02-17T18:10:53.343Z,12.90
2019-02-17T18:14:01.921Z,12.80
2019-02-17T18:17:24.753Z,12.80
2019-02-17T18:20:33.361Z,12.80
2019-02-17T18:23:42.245Z,12.70
2019-02-17T18:26:50.770Z,12.60
2019-02-17T18:30:00.355Z,12.60
2019-02-17T18:33:19.299Z,12.50
2019-02-17T18:36:28.059Z,12.50
2019-02-17T18:39:36.650Z,12.40
2019-02-17T18:42:47.052Z,12.40
2019-02-17T18:45:55.625Z,12.30
2019-02-17T18:49:04.234Z,12.30
2019-02-17T18:52:12.894Z,12.20
2019-02-17T18:55:22.016Z,12.20
2019-02-17T18:58:30.689Z,12.10
2019-02-17T19:01:39.935Z,12.10
2019-02-17T19:04:48.435Z,12.00
2019-02-17T19:07:56.953Z,11.90
2019-02-17T19:11:05.563Z,11.90
2019-02-17T19:14:24.311Z,11.70
2019-02-17T19:17:33.103Z,11.60
2019-02-17T19:20:41.837Z,11.60
2019-02-17T19:23:50.375Z,11.50
2019-02-17T19:26:58.982Z,11.60
2019-02-17T19:30:08.462Z,11.50
2019-02-17T19:33:16.972Z,11.40
2019-02-17T19:36:25.614Z,11.40
2019-02-17T19:39:34.320Z,11.40
2019-02-17T19:42:42.963Z,11.40
2019-02-17T19:45:51.443Z,11.30
2019-02-17T19:49:00.080Z,11.20
2019-02-17T19:52:18.867Z,11.10
2019-02-17T19:55:27.379Z,11.00
2019-02-17T19:58:36.001Z,10.90
2019-02-17T20:01:44.725Z,10.90
2019-02-17T20:05:06.956Z,10.90
2019-02-17T20:08:17.046Z,10.90
2019-02-17T20:11:25.664Z,10.80
2019-02-17T20:14:34.287Z,10.80
2019-02-17T20:17:43.037Z,10.90
2019-02-17T20:20:51.718Z,10.90
2019-02-17T20:24:00.330Z,10.90
2019-02-17T20:27:08.911Z,10.90
2019-02-17T20:30:27.854Z,10.80
2019-02-17T20:33:36.356Z,10.60
2019-02-17T20:36:44.872Z,10.60
2019-02-17T20:39:53.622Z,10.40
2019-02-17T20:43:02.213Z,10.30
2019-02-17T20:46:10.830Z,10.20
2019-02-17T20:49:29.724Z,10.20
2019-02-17T20:52:38.243Z,10.20
2019-02-17T20:55:46.752Z,10.20
2019-02-17T20:58:56.375Z,10.20
2019-02-17T21:02:15.347Z,10.30
2019-02-17T21:05:23.948Z,10.20
2019-02-17T21:08:32.567Z,10.30
2019-02-17T21:11:41.229Z,10.30
2019-02-17T21:14:49.828Z,10.20
2019-02-17T21:17:58.429Z,10.20
2019-02-17T21:21:07.101Z,10.10
2019-02-17T21:24:25.963Z,10.00
2019-02-17T21:27:34.465Z,9.80
2019-02-17T21:30:43.167Z,9.80
2019-02-17T21:33:51.756Z,9.80
2019-02-17T21:37:00.292Z,9.80
2019-02-17T21:40:11.538Z,9.70
2019-02-17T21:43:20.040Z,9.70
2019-02-17T21:46:28.676Z,9.70
2019-02-17T21:49:37.425Z,9.60
2019-02-17T21:52:45.901Z,9.50
2019-02-17T21:55:54.537Z,9.40
2019-02-17T21:59:13.310Z,9.30
2019-02-17T22:02:22.093Z,9.40
2019-02-17T22:05:30.705Z,9.40
2019-02-17T22:08:39.322Z,9.40
2019-02-17T22:11:48.005Z,9.20
2019-02-17T22:14:56.620Z,9.10
2019-02-17T22:18:05.200Z,9.10
2019-02-17T22:21:13.904Z,9.10
2019-02-17T22:24:32.614Z,9.10
2019-02-17T22:27:41.213Z,9.10
2019-02-17T22:30:49.959Z,9.00
2019-02-17T22:33:58.545Z,9.00
2019-02-17T22:37:07.133Z,9.00
2019-02-17T22:40:16.009Z,9.00
2019-02-17T22:43:24.605Z,8.90
2019-02-17T22:46:33.122Z,8.80
2019-02-17T22:49:52.065Z,8.80
2019-02-17T22:53:00.665Z,8.70
2019-02-17T22:56:09.317Z,8.70
2019-02-17T22:59:17.973Z,8.70
2019-02-17T23:02:26.863Z,8.70
2019-02-17T23:05:35.371Z,8.70
2019-02-17T23:08:43.944Z,8.60
2019-02-17T23:11:52.647Z,8.60
2019-02-17T23:15:11.522Z,8.60
2019-02-17T23:18:20.131Z,8.60
2019-02-17T23:21:28.948Z,8.50
2019-02-17T23:24:37.530Z,8.40
2019-02-17T23:27:46.330Z,8.40
2019-02-17T23:30:55.025Z,8.50
2019-02-17T23:34:03.608Z,8.50
2019-02-17T23:37:12.220Z,8.50
2019-02-17T23:40:20.867Z,8.40
2019-02-17T23:43:29.479Z,8.40
2019-02-17T23:46:48.408Z,8.40
2019-02-17T23:49:56.983Z,8.30
2019-02-17T23:53:05.614Z,8.30
2019-02-17T23:56:14.199Z,8.30
2019-02-17T23:59:22.895Z,8.30
